Temp: 12.9°C   Baro: 1008.5mb
  Wind: 8.1mph   Dir: W (275°)
  Rain: 6.4mm (0.0mm/hr)
  Sun: 93W/m2  Humidity: 93%

Historic data

Bath Spa Weather Station Historical Data
Daily Summary for April 15, 2024 Units:  Metric    English   Both
Daily Weekly Monthly Yearly Custom
  High: Low: Average:
Temperature: 10.6 °C 6.1 °C 8.2 °C
Dew Point: 6.2 °C 1.6 °C 4.1 °C
Humidity: 89% 56.2% 76%
Wind Speed: 31.7km/h 5.3km/h 16.3km/h
Wind Gust: 59.5km/h - -
Wind- - West
Pressure: 1017.5 hPa 1006.3 hPa -
Precipitation: 6.86 mm    
Historical Graphs
 
 
Tabular Data for April 15, 2024
Time Temperature Dew Point Pressure Wind Wind Speed Wind Gust Humidity Rainfall Rate (Hourly) solar
00:09 6.9 °C 4.2 °C 1017.5 hPa SSW 9 km/h 16.1 km/h 83% 0 mm 0 W/m2
00:14 6.9 °C 4.2 °C 1017.5 hPa SSW 10.8 km/h 20.9 km/h 83% 0 mm 0 W/m2
00:19 6.8 °C 4.2 °C 1017.2 hPa SSW 9.2 km/h 20.9 km/h 83% 0 mm 0 W/m2
00:24 6.9 °C 4.3 °C 1017.2 hPa SSW 9.3 km/h 16.1 km/h 83.4% 0 mm 0 W/m2
00:29 6.8 °C 4.3 °C 1017.2 hPa SW 7.2 km/h 14.5 km/h 84% 0 mm 0 W/m2
00:34 6.8 °C 4.3 °C 1017.2 hPa SSW 9.3 km/h 19.3 km/h 84% 0 mm 0 W/m2
00:39 6.8 °C 4.3 °C 1017.2 hPa SW 10 km/h 19.3 km/h 84% 0 mm 0 W/m2
00:44 6.8 °C 4.3 °C 1017.2 hPa SSW 9 km/h 19.3 km/h 84% 0 mm 0 W/m2
00:49 6.7 °C 4.2 °C 1016.8 hPa SSW 12.6 km/h 17.7 km/h 84% 0 mm 0 W/m2
00:54 6.8 °C 4.3 °C 1016.8 hPa SW 9.3 km/h 22.5 km/h 84% 0 mm 0 W/m2
00:59 6.9 °C 4.4 °C 1016.8 hPa SW 10.3 km/h 22.5 km/h 84% 0 mm 0 W/m2
01:04 6.9 °C 4.4 °C 1016.8 hPa SW 10.8 km/h 22.5 km/h 84% 0 mm 0 W/m2
01:09 7.1 °C 4.6 °C 1016.8 hPa SW 16.4 km/h 24.1 km/h 84% 0 mm 0 W/m2
01:14 7.2 °C 4.7 °C 1016.5 hPa SW 12.6 km/h 22.5 km/h 84% 0 mm 0 W/m2
01:19 7.3 °C 4.8 °C 1016.5 hPa SSW 9 km/h 22.5 km/h 84% 0 mm 0 W/m2
01:24 7.3 °C 4.8 °C 1016.5 hPa SW 9.7 km/h 22.5 km/h 84% 0 mm 0 W/m2
01:29 7.3 °C 4.8 °C 1016.1 hPa SW 13.5 km/h 25.7 km/h 84% 0 mm 0 W/m2
01:34 7.3 °C 4.6 °C 1016.1 hPa SW 10.9 km/h 22.5 km/h 83% 0 mm 0 W/m2
01:39 7.3 °C 4.6 °C 1015.8 hPa SW 12.9 km/h 25.7 km/h 83% 0 mm 0 W/m2
01:44 7.3 °C 4.6 °C 1015.8 hPa SW 9 km/h 22.5 km/h 83% 0 mm 0 W/m2
01:49 7.3 °C 4.6 °C 1015.5 hPa SW 10.9 km/h 20.9 km/h 83% 0 mm 0 W/m2
01:54 7.3 °C 4.7 °C 1015.5 hPa SW 10.6 km/h 19.3 km/h 83% 0 mm 0 W/m2
01:59 7.3 °C 4.7 °C 1015.1 hPa SW 11.9 km/h 24.1 km/h 83% 0 mm 0 W/m2
02:04 7.4 °C 4.7 °C 1015.1 hPa SW 11.3 km/h 24.1 km/h 83% 0 mm 0 W/m2
02:09 7.4 °C 4.7 °C 1015.1 hPa SW 8.9 km/h 17.7 km/h 83% 0 mm 0 W/m2
02:14 7.4 °C 4.7 °C 1014.8 hPa SW 12.1 km/h 20.9 km/h 83% 0 mm 0 W/m2
02:19 7.4 °C 4.7 °C 1014.8 hPa SSW 10.9 km/h 20.9 km/h 83% 0 mm 0 W/m2
02:24 7.4 °C 4.7 °C 1014.4 hPa SW 10.9 km/h 16.1 km/h 83% 0 mm 0 W/m2
02:29 7.3 °C 4.6 °C 1014.4 hPa SW 10 km/h 20.9 km/h 83% 0 mm 0 W/m2
02:34 7.3 °C 4.8 °C 1014.4 hPa SSW 13.4 km/h 20.9 km/h 84% 0 mm 0 W/m2
02:39 7.3 °C 4.8 °C 1014.4 hPa SW 10.3 km/h 20.9 km/h 84% 0 mm 0 W/m2
02:44 7.2 °C 4.7 °C 1014.1 hPa SW 10.8 km/h 20.9 km/h 84% 0 mm 0 W/m2
02:49 7.2 °C 4.8 °C 1014.1 hPa SW 16.7 km/h 27.4 km/h 84.6% 0 mm 0 W/m2
02:54 7.2 °C 4.8 °C 1014.1 hPa SW 11.3 km/h 25.7 km/h 84.8% 0 mm 0 W/m2
02:59 7.2 °C 4.8 °C 1013.8 hPa SW 13.5 km/h 19.3 km/h 85% 0 mm 0 W/m2
03:04 7.1 °C 4.7 °C 1013.4 hPa SSW 9.8 km/h 22.5 km/h 85% 0 mm 0 W/m2
03:09 7.1 °C 4.7 °C 1013.4 hPa SW 15.4 km/h 24.1 km/h 85% 0 mm 0 W/m2
03:14 7.1 °C 4.8 °C 1013.4 hPa SSW 15.1 km/h 24.1 km/h 85.6% 0 mm 0 W/m2
03:19 7.1 °C 4.9 °C 1013.4 hPa SSW 12.9 km/h 24.1 km/h 86% 0 mm 0 W/m2
03:24 7.1 °C 4.9 °C 1013.1 hPa SW 13.2 km/h 22.5 km/h 86% 0 mm 0 W/m2
03:29 7.1 °C 4.9 °C 1013.1 hPa SW 10.9 km/h 22.5 km/h 86% 0 mm 0 W/m2
03:34 7.1 °C 4.9 °C 1012.8 hPa SW 11.3 km/h 22.5 km/h 86% 0 mm 0 W/m2
03:39 7.1 °C 4.9 °C 1012.8 hPa SW 10.6 km/h 22.5 km/h 86% 0 mm 0 W/m2
03:44 7.2 °C 5 °C 1012.8 hPa SW 13.2 km/h 27.4 km/h 86% 0 mm 0 W/m2
03:49 7.3 °C 5.1 °C 1012.4 hPa SW 16.1 km/h 33.8 km/h 86% 0.25 mm 0 W/m2
03:54 7.3 °C 5.2 °C 1012.4 hPa WSW 10.6 km/h 20.9 km/h 86.4% 0.25 mm 0 W/m2
03:59 7.3 °C 5.3 °C 1012.4 hPa SW 18 km/h 32.2 km/h 87% 0.25 mm 0 W/m2
04:04 7.4 °C 5.4 °C 1012.4 hPa WSW 10.9 km/h 24.1 km/h 87% 0.25 mm 0 W/m2
04:09 7.4 °C 5.4 °C 1012.1 hPa WSW 10.9 km/h 22.5 km/h 87% 0.25 mm 0 W/m2
04:14 7.4 °C 5.4 °C 1011.7 hPa SW 11.6 km/h 22.5 km/h 87% 0.25 mm 0 W/m2
04:19 7.4 °C 5.4 °C 1011.7 hPa SW 9.7 km/h 20.9 km/h 87% 0.25 mm 0 W/m2
04:24 7.4 °C 5.4 °C 1011.7 hPa SW 9.5 km/h 20.9 km/h 87% 0.25 mm 0 W/m2
04:29 7.4 °C 5.4 °C 1011.7 hPa SW 10.8 km/h 19.3 km/h 87% 0.25 mm 0 W/m2
04:34 7.5 °C 5.5 °C 1011.4 hPa SW 9.5 km/h 20.9 km/h 87% 0.25 mm 0 W/m2
04:39 7.6 °C 5.6 °C 1011.4 hPa SSW 14.5 km/h 22.5 km/h 87% 0.25 mm 0 W/m2
04:44 7.6 °C 5.6 °C 1011.1 hPa SW 14.3 km/h 29 km/h 87% 0.25 mm 0 W/m2
04:49 7.7 °C 5.7 °C 1011.1 hPa SSW 21.6 km/h 27.4 km/h 87% 0.25 mm 0 W/m2
04:54 7.7 °C 5.7 °C 1010.7 hPa SSW 17.4 km/h 33.8 km/h 87% 0 mm 0 W/m2
04:59 7.8 °C 5.8 °C 1010.7 hPa SSW 15.9 km/h 33.8 km/h 87% 0 mm 0 W/m2
05:04 7.8 °C 5.8 °C 1010.4 hPa SW 18.3 km/h 25.7 km/h 87% 0 mm 0 W/m2
05:09 7.7 °C 5.7 °C 1010.4 hPa SSW 14.2 km/h 25.7 km/h 87% 0 mm 0 W/m2
05:14 7.7 °C 5.7 °C 1010.4 hPa SSW 17.1 km/h 32.2 km/h 87% 0 mm 0 W/m2
05:19 7.7 °C 5.8 °C 1010 hPa SW 16.7 km/h 27.4 km/h 87.8% 0 mm 0 W/m2
05:24 7.7 °C 5.8 °C 1010 hPa SSW 14.8 km/h 22.5 km/h 88% 0 mm 0 W/m2
05:29 7.8 °C 5.9 °C 1010 hPa SW 13.5 km/h 22.5 km/h 88% 0 mm 0 W/m2
05:34 7.8 °C 5.9 °C 1009.7 hPa SW 9.3 km/h 19.3 km/h 87.8% 0 mm 0 W/m2
05:39 7.8 °C 5.8 °C 1009.7 hPa SSW 9.8 km/h 22.5 km/h 87% 0 mm 0 W/m2
05:44 7.8 °C 5.8 °C 1009.7 hPa SW 14.2 km/h 29 km/h 87% 0 mm 0 W/m2
05:49 7.9 °C 5.9 °C 1009.4 hPa SSW 11.9 km/h 30.6 km/h 87% 0 mm 0 W/m2
05:54 8.1 °C 6 °C 1009.4 hPa SW 25.1 km/h 30.6 km/h 86.8% 0 mm 0 W/m2
05:59 8.2 °C 6 °C 1009.4 hPa SW 17.1 km/h 30.6 km/h 86% 0 mm 0 W/m2
06:04 8.2 °C 5.9 °C 1009 hPa SW 10.9 km/h 29 km/h 85.6% 0 mm 0 W/m2
06:09 8.2 °C 5.8 °C 1009 hPa WSW 14.2 km/h 24.1 km/h 85% 0 mm 0 W/m2
06:14 8.3 °C 5.9 °C 1009 hPa WSW 14.2 km/h 32.2 km/h 85% 0 mm 0 W/m2
06:19 8.4 °C 5.9 °C 1008.7 hPa WSW 13.2 km/h 24.1 km/h 84.2% 0 mm 0 W/m2
06:24 8.4 °C 5.9 °C 1008.7 hPa WSW 11.6 km/h 24.1 km/h 84% 0 mm 0 W/m2
06:29 8.5 °C 5.9 °C 1008.4 hPa SW 16.7 km/h 30.6 km/h 83.4% 0 mm 0 W/m2
06:34 8.5 °C 5.8 °C 1008.4 hPa SW 12.9 km/h 29 km/h 83% 0 mm 0 W/m2
06:39 8.4 °C 5.7 °C 1008.4 hPa SW 15.4 km/h 29 km/h 83% 0 mm 0 W/m2
06:44 8.4 °C 5.8 °C 1008 hPa SW 19 km/h 35.4 km/h 83% 0 mm 9 W/m2
06:49 8.6 °C 5.8 °C 1008 hPa WSW 12.2 km/h 29 km/h 83% 0 mm 5 W/m2
06:54 8.6 °C 5.8 °C 1007.7 hPa SW 16.1 km/h 37 km/h 82.2% 0 mm 9 W/m2
06:59 8.6 °C 5.7 °C 1007.7 hPa SW 12.2 km/h 29 km/h 82% 0 mm 12 W/m2
07:04 8.7 °C 5.8 °C 1007.7 hPa WSW 22 km/h 33.8 km/h 82% 0 mm 16 W/m2
07:09 8.7 °C 5.8 °C 1007.7 hPa SW 24.8 km/h 33.8 km/h 81.8% 0 mm 35 W/m2
07:14 8.8 °C 5.7 °C 1007.3 hPa SW 19.6 km/h 38.6 km/h 81% 0 mm 14 W/m2
07:19 8.7 °C 5.8 °C 1007.3 hPa WSW 21.6 km/h 35.4 km/h 81.8% 0 mm 19 W/m2
07:24 8.7 °C 5.8 °C 1007.3 hPa WSW 20 km/h 35.4 km/h 82% 0 mm 25 W/m2
07:29 8.8 °C 5.9 °C 1007 hPa SW 16.7 km/h 40.2 km/h 82% 0 mm 39 W/m2
07:34 8.8 °C 6 °C 1007 hPa WSW 20.6 km/h 35.4 km/h 82.4% 0 mm 42 W/m2
07:39 8.7 °C 6 °C 1007 hPa WSW 20.3 km/h 35.4 km/h 83% 0 mm 42 W/m2
07:44 8.7 °C 6 °C 1006.7 hPa SW 20.4 km/h 41.8 km/h 83% 0 mm 28 W/m2
07:49 8.8 °C 6.1 °C 1006.7 hPa SW 22.5 km/h 43.5 km/h 83.2% 0 mm 46 W/m2
07:54 8.8 °C 6.2 °C 1006.7 hPa WSW 26.1 km/h 46.7 km/h 83% 0.25 mm 77 W/m2
07:59 8.7 °C 6.1 °C 1006.7 hPa West 27.8 km/h 41.8 km/h 83.6% 0.51 mm 67 W/m2
08:04 8.4 °C 6 °C 1006.7 hPa West 26.1 km/h 43.5 km/h 84.6% 0.76 mm 56 W/m2
08:09 8.3 °C 5.9 °C 1006.3 hPa West 15 km/h 30.6 km/h 85.3% 1.52 mm 30 W/m2
08:14 8.2 °C 5.9 °C 1006.3 hPa West 17.5 km/h 38.6 km/h 86% 2.29 mm 33 W/m2
08:19 8 °C 6 °C 1006.3 hPa West 15.9 km/h 38.6 km/h 87% 2.79 mm 21 W/m2
08:24 7.8 °C 5.9 °C 1006.7 hPa WNW 20.6 km/h 59.5 km/h 87.8% 4.32 mm 14 W/m2
08:29 7.2 °C 5.3 °C 1007.3 hPa West 24.8 km/h 59.5 km/h 88% 5.84 mm 21 W/m2
08:34 7 °C 5.2 °C 1007.3 hPa WNW 22 km/h 43.5 km/h 88.6% 6.35 mm 42 W/m2
08:39 6.6 °C 4.8 °C 1007.3 hPa NW 17.1 km/h 33.8 km/h 89% 6.35 mm 98 W/m2
08:44 6.3 °C 4.6 °C 1007.3 hPa WNW 14.8 km/h 27.4 km/h 89% 6.6 mm 98 W/m2
08:49 6.2 °C 4.6 °C 1007 hPa West 10.3 km/h 22.5 km/h 89% 6.6 mm 120 W/m2
08:54 6.2 °C 4.4 °C 1007.3 hPa WNW 12.6 km/h 27.4 km/h 89% 6.6 mm 171 W/m2
08:59 6.1 °C 4.4 °C 1007.3 hPa West 14.5 km/h 27.4 km/h 89% 6.35 mm 142 W/m2
09:04 6.1 °C 4.4 °C 1007.3 hPa West 12.9 km/h 24.1 km/h 89% 6.1 mm 279 W/m2
09:09 6.3 °C 4.6 °C 1007 hPa West 8.5 km/h 19.3 km/h 89% 5.84 mm 406 W/m2
09:14 6.6 °C 4.9 °C 1007.3 hPa West 10.9 km/h 22.5 km/h 89% 4.83 mm 343 W/m2
09:19 6.7 °C 5 °C 1007.3 hPa West 14.6 km/h 25.7 km/h 89% 4.06 mm 250 W/m2
09:24 6.7 °C 4.9 °C 1007.3 hPa West 15.1 km/h 24.1 km/h 88.4% 3.56 mm 214 W/m2
09:29 6.7 °C 4.9 °C 1007.3 hPa West 14.2 km/h 24.1 km/h 88% 1.52 mm 394 W/m2
09:34 6.9 °C 5.1 °C 1007.3 hPa West 14.6 km/h 24.1 km/h 88% 0.51 mm 323 W/m2
09:39 7 °C 5.1 °C 1007.3 hPa WNW 17.5 km/h 29 km/h 88% 0.25 mm 318 W/m2
09:44 7.2 °C 5.2 °C 1007.3 hPa West 15.8 km/h 30.6 km/h 87.2% 0 mm 290 W/m2
09:49 7.4 °C 5.4 °C 1007.3 hPa West 18 km/h 30.6 km/h 87% 0 mm 580 W/m2
09:54 7.6 °C 5.5 °C 1007.3 hPa West 20.3 km/h 33.8 km/h 86.6% 0 mm 649 W/m2
09:59 8 °C 5.8 °C 1007.3 hPa West 23.8 km/h 35.4 km/h 86% 0 mm 631 W/m2
10:04 7.9 °C 5.6 °C 1007.3 hPa WNW 19.8 km/h 35.4 km/h 85.4% 0 mm 480 W/m2
10:09 7.8 °C 5.4 °C 1007.3 hPa WSW 17.4 km/h 37 km/h 85% 0 mm 278 W/m2
10:14 7.8 °C 5.3 °C 1007.7 hPa West 17.7 km/h 30.6 km/h 84.2% 0 mm 336 W/m2
10:19 7.9 °C 5.4 °C 1007.7 hPa West 18.3 km/h 35.4 km/h 84% 0 mm 603 W/m2
10:24 8.3 °C 5.6 °C 1007.7 hPa West 13.2 km/h 30.6 km/h 83% 0 mm 599 W/m2
10:29 8.6 °C 5.5 °C 1008 hPa WNW 23.5 km/h 43.5 km/h 81.2% 0 mm 624 W/m2
10:34 8.6 °C 4.8 °C 1008 hPa West 23.5 km/h 46.7 km/h 76.8% 0 mm 643 W/m2
10:39 8.8 °C 4.6 °C 1008 hPa NW 15.4 km/h 30.6 km/h 74.4% 0 mm 703 W/m2
10:44 9.2 °C 4.5 °C 1008 hPa West 18 km/h 32.2 km/h 72.6% 0 mm 691 W/m2
10:49 9.1 °C 4.1 °C 1008 hPa WNW 23.2 km/h 37 km/h 70.8% 0 mm 635 W/m2
10:54 8.8 °C 3.6 °C 1008.4 hPa WNW 22.5 km/h 41.8 km/h 70% 0 mm 204 W/m2
10:59 8.6 °C 3.2 °C 1008.4 hPa WNW 19.6 km/h 49.9 km/h 69% 0 mm 137 W/m2
11:04 8.4 °C 2.9 °C 1008.4 hPa WNW 18.5 km/h 43.5 km/h 68.8% 0 mm 172 W/m2
11:09 8.6 °C 2.8 °C 1008.4 hPa WNW 19.6 km/h 43.5 km/h 66.8% 0 mm 705 W/m2
11:14 9.1 °C 2.8 °C 1008.4 hPa WNW 25.3 km/h 51.5 km/h 64.8% 0 mm 747 W/m2
11:19 9.3 °C 2.7 °C 1008.7 hPa WNW 21.2 km/h 51.5 km/h 63.2% 0 mm 784 W/m2
11:24 9.3 °C 2.1 °C 1008.7 hPa NW 26.1 km/h 46.7 km/h 60.4% 0 mm 798 W/m2
11:29 9.3 °C 1.8 °C 1008.7 hPa WNW 21.6 km/h 38.6 km/h 59.8% 0 mm 315 W/m2
11:34 9.1 °C 1.6 °C 1009 hPa West 24.8 km/h 41.8 km/h 59.6% 0 mm 230 W/m2
11:39 8.4 °C 1.8 °C 1009 hPa WNW 22.9 km/h 48.3 km/h 63% 0 mm 199 W/m2
11:44 8.1 °C 2.2 °C 1009 hPa WNW 18.3 km/h 37 km/h 66.6% 0 mm 756 W/m2
11:49 8.2 °C 2.8 °C 1009 hPa WNW 14.2 km/h 35.4 km/h 68.8% 0 mm 733 W/m2
11:54 8.7 °C 3.2 °C 1009 hPa West 24 km/h 38.6 km/h 68.4% 0 mm 722 W/m2
11:59 8.9 °C 3.1 °C 1009 hPa WNW 22.5 km/h 35.4 km/h 66.8% 0 mm 726 W/m2
12:04 9.3 °C 3.1 °C 1009 hPa WNW 25.4 km/h 37 km/h 65.2% 0 mm 782 W/m2
12:09 9.6 °C 3.1 °C 1009 hPa WNW 22.2 km/h 43.5 km/h 63.8% 0 mm 796 W/m2
12:14 9.8 °C 2.7 °C 1009 hPa WNW 17.2 km/h 43.5 km/h 61.4% 0 mm 912 W/m2
12:19 9.8 °C 2.4 °C 1009 hPa WNW 24 km/h 51.5 km/h 60.2% 0 mm 840 W/m2
12:24 9.8 °C 2.4 °C 1009 hPa WNW 21.9 km/h 41.8 km/h 60.2% 0 mm 835 W/m2
12:29 9.8 °C 2.2 °C 1009 hPa WNW 29.3 km/h 48.3 km/h 58.8% 0 mm 851 W/m2
12:34 9.8 °C 2.4 °C 1009.4 hPa WNW 20.9 km/h 37 km/h 59.6% 0 mm 874 W/m2
12:39 9.9 °C 2.2 °C 1009 hPa West 26.4 km/h 43.5 km/h 58.8% 0 mm 860 W/m2
12:44 10.1 °C 2.2 °C 1009.4 hPa West 23.8 km/h 48.3 km/h 58% 0 mm 858 W/m2
12:49 10.1 °C 2 °C 1009 hPa WNW 30.3 km/h 43.5 km/h 57.2% 0 mm 858 W/m2
12:54 10 °C 2.1 °C 1009 hPa WNW 19 km/h 41.8 km/h 57.6% 0 mm 991 W/m2
12:59 10.2 °C 2.3 °C 1009.4 hPa West 27.4 km/h 41.8 km/h 58% 0 mm 984 W/m2
13:04 10.3 °C 2.4 °C 1009.4 hPa West 25.4 km/h 51.5 km/h 57.8% 0 mm 932 W/m2
13:09 9.9 °C 2 °C 1009.7 hPa West 28.3 km/h 51.5 km/h 57.8% 0 mm 889 W/m2
13:14 9.7 °C 2.3 °C 1009.7 hPa WNW 23.2 km/h 38.6 km/h 60.2% 0 mm 786 W/m2
13:19 9.9 °C 2.8 °C 1009.7 hPa WNW 19 km/h 37 km/h 61.4% 0 mm 780 W/m2
13:24 10.1 °C 2.4 °C 1009.7 hPa West 19.8 km/h 41.8 km/h 59.2% 0 mm 780 W/m2
13:29 9.9 °C 2.4 °C 1009.7 hPa WNW 22.9 km/h 43.5 km/h 59.2% 0 mm 819 W/m2
13:34 9.7 °C 2.3 °C 1009.7 hPa WNW 24.3 km/h 45.1 km/h 59.8% 0 mm 313 W/m2
13:39 9.8 °C 2.6 °C 1009.7 hPa West 23.8 km/h 45.1 km/h 60.8% 0 mm 861 W/m2
13:44 10.2 °C 2.4 °C 1009.7 hPa WNW 24.5 km/h 43.5 km/h 58.6% 0 mm 854 W/m2
13:49 10.4 °C 2.4 °C 1010 hPa WNW 26.4 km/h 43.5 km/h 57.6% 0 mm 851 W/m2
13:54 10.3 °C 2.2 °C 1010 hPa West 28.6 km/h 46.7 km/h 57.4% 0 mm 796 W/m2
13:59 10.2 °C 2.1 °C 1010 hPa West 26.4 km/h 45.1 km/h 57.2% 0 mm 782 W/m2
14:04 10.4 °C 2.1 °C 1009.7 hPa West 20.9 km/h 43.5 km/h 56.2% 0 mm 817 W/m2
14:09 10.4 °C 2.3 °C 1010 hPa West 20.6 km/h 43.5 km/h 57% 0 mm 817 W/m2
14:14 10.3 °C 3.3 °C 1010 hPa WNW 18.2 km/h 37 km/h 61.6% 0 mm 325 W/m2
14:19 10.1 °C 3 °C 1010 hPa West 17.4 km/h 41.8 km/h 61.6% 0 mm 207 W/m2
14:23 9.1 °C 2.9 °C 1010 hPa West 31.7 km/h 45.1 km/h 65.5% 0 mm 274 W/m2
14:29 8.1 °C 3.2 °C 1010.4 hPa West 27.4 km/h 40.2 km/h 70.8% 0 mm 796 W/m2
14:34 8.3 °C 3.7 °C 1010.4 hPa West 21.7 km/h 37 km/h 72.8% 0 mm 745 W/m2
14:39 8.8 °C 3.9 °C 1010 hPa West 20.3 km/h 40.2 km/h 71.6% 0 mm 751 W/m2
14:44 9.4 °C 4.2 °C 1010 hPa West 17.4 km/h 43.5 km/h 70.2% 0 mm 803 W/m2
14:49 9.7 °C 4.2 °C 1010.4 hPa West 24.8 km/h 46.7 km/h 68.4% 0 mm 851 W/m2
14:54 9.7 °C 4.2 °C 1010.4 hPa West 16.4 km/h 38.6 km/h 68% 0 mm 851 W/m2
14:59 10.1 °C 4.4 °C 1010 hPa West 19 km/h 32.2 km/h 68% 0 mm 833 W/m2
15:04 10.3 °C 4.2 °C 1010 hPa West 22.2 km/h 51.5 km/h 65.6% 0 mm 814 W/m2
15:09 10.2 °C 3.7 °C 1010.4 hPa WNW 24.5 km/h 48.3 km/h 63.8% 0 mm 814 W/m2
15:14 10.1 °C 3.6 °C 1010 hPa West 16.7 km/h 38.6 km/h 64.2% 0 mm 814 W/m2
15:19 9.9 °C 3.6 °C 1010 hPa West 13.8 km/h 32.2 km/h 65% 0 mm 218 W/m2
15:24 9.9 °C 3.7 °C 1010 hPa WNW 19.6 km/h 37 km/h 65.4% 0 mm 851 W/m2
15:29 9.9 °C 4.1 °C 1010 hPa West 19.3 km/h 35.4 km/h 67% 0 mm 322 W/m2
15:34 9.8 °C 4.3 °C 1010.4 hPa West 20.6 km/h 38.6 km/h 68.4% 0 mm 241 W/m2
15:39 9.5 °C 4.1 °C 1010.7 hPa WNW 24.5 km/h 38.6 km/h 69% 0 mm 283 W/m2
15:44 9.1 °C 3.2 °C 1010.4 hPa WNW 15.6 km/h 40.2 km/h 66.6% 0 mm 290 W/m2
15:49 8.8 °C 2.9 °C 1010.4 hPa West 10.1 km/h 37 km/h 66.2% 0 mm 120 W/m2
15:54 8.6 °C 2.7 °C 1010.4 hPa WNW 19 km/h 38.6 km/h 66.6% 0 mm 366 W/m2
15:59 8.7 °C 3.1 °C 1010.4 hPa WNW 12.2 km/h 25.7 km/h 68% 0 mm 636 W/m2
16:04 9.4 °C 3.4 °C 1010.4 hPa WNW 17.5 km/h 33.8 km/h 66.2% 0 mm 619 W/m2
16:09 9.9 °C 3.2 °C 1010.4 hPa WNW 13.7 km/h 33.8 km/h 62.8% 0 mm 642 W/m2
16:14 10.2 °C 2.6 °C 1010.4 hPa West 24.8 km/h 49.9 km/h 59.6% 0 mm 612 W/m2
16:19 10.3 °C 2.8 °C 1010.4 hPa West 23.2 km/h 41.8 km/h 59.8% 0 mm 582 W/m2
16:24 10.3 °C 2.8 °C 1010.4 hPa WNW 19.6 km/h 41.8 km/h 59.6% 0 mm 589 W/m2
16:29 10.6 °C 3.2 °C 1010.4 hPa WNW 22.5 km/h 35.4 km/h 60% 0 mm 619 W/m2
16:34 10.6 °C 3.2 °C 1010.4 hPa West 16.4 km/h 37 km/h 60.2% 0 mm 642 W/m2
16:39 10.4 °C 3 °C 1010.4 hPa WNW 18.5 km/h 35.4 km/h 60% 0 mm 642 W/m2
16:44 9.9 °C 2.8 °C 1010.7 hPa West 17.5 km/h 30.6 km/h 61.4% 0 mm 127 W/m2
16:49 9.1 °C 3.1 °C 1010.7 hPa WNW 26.4 km/h 46.7 km/h 65.6% 0 mm 111 W/m2
16:54 8.7 °C 3.4 °C 1010.7 hPa West 20.9 km/h 40.2 km/h 69.6% 0 mm 536 W/m2
16:59 8.7 °C 3.7 °C 1010.7 hPa West 10.3 km/h 35.4 km/h 71.2% 0 mm 480 W/m2
17:04 9.1 °C 4.2 °C 1010.7 hPa WNW 9.3 km/h 17.7 km/h 71.2% 0 mm 473 W/m2
17:09 9.6 °C 3.9 °C 1010.7 hPa WNW 17.7 km/h 43.5 km/h 67.8% 0 mm 462 W/m2
17:14 10.1 °C 3.5 °C 1010.7 hPa West 19 km/h 38.6 km/h 63.8% 0 mm 454 W/m2
17:19 10.1 °C 2.9 °C 1010.7 hPa WNW 17.4 km/h 38.6 km/h 61.2% 0 mm 466 W/m2
17:24 10.2 °C 2.6 °C 1010.7 hPa West 22.5 km/h 45.1 km/h 59.4% 0 mm 469 W/m2
17:29 10.1 °C 2.4 °C 1010.7 hPa West 24.5 km/h 38.6 km/h 58.8% 0 mm 355 W/m2
17:34 9.9 °C 2.6 °C 1010.7 hPa West 22.7 km/h 33.8 km/h 60% 0 mm 151 W/m2
17:39 9.7 °C 2.1 °C 1010.7 hPa WNW 19.6 km/h 38.6 km/h 58.8% 0 mm 202 W/m2
17:44 9.8 °C 2.4 °C 1011.1 hPa WNW 14 km/h 33.8 km/h 60.2% 0 mm 438 W/m2
17:49 9.8 °C 2.6 °C 1010.7 hPa WNW 15.9 km/h 32.2 km/h 61% 0 mm 381 W/m2
17:54 9.6 °C 2.7 °C 1010.7 hPa WNW 12.6 km/h 25.7 km/h 62% 0 mm 341 W/m2
17:59 9.6 °C 2.8 °C 1010.7 hPa West 15.1 km/h 33.8 km/h 62.8% 0 mm 323 W/m2
18:04 9.6 °C 3 °C 1010.7 hPa West 14.2 km/h 29 km/h 63.6% 0 mm 302 W/m2
18:09 9.5 °C 3.3 °C 1010.7 hPa West 15.3 km/h 24.1 km/h 65.4% 0 mm 292 W/m2
18:14 9.1 °C 3.3 °C 1011.1 hPa West 13.8 km/h 24.1 km/h 67% 0 mm 156 W/m2
18:19 9.1 °C 3.4 °C 1010.7 hPa West 18.5 km/h 25.7 km/h 67.4% 0 mm 253 W/m2
18:24 9.4 °C 3.6 °C 1011.1 hPa West 10.9 km/h 24.1 km/h 67% 0 mm 308 W/m2
18:29 9.7 °C 3.7 °C 1011.1 hPa West 20.6 km/h 40.2 km/h 66.2% 0 mm 295 W/m2
18:34 9.3 °C 3.3 °C 1011.1 hPa West 21.2 km/h 32.2 km/h 66% 0 mm 127 W/m2
18:39 9.1 °C 2.9 °C 1011.1 hPa West 17.4 km/h 37 km/h 65% 0 mm 250 W/m2
18:44 9.2 °C 2.6 °C 1011.1 hPa West 18.7 km/h 33.8 km/h 63.2% 0 mm 237 W/m2
18:49 9.3 °C 2.6 °C 1011.4 hPa West 15.1 km/h 32.2 km/h 63% 0 mm 248 W/m2
18:54 9.4 °C 2.6 °C 1011.4 hPa WNW 13 km/h 33.8 km/h 62.6% 0 mm 151 W/m2
18:59 9.3 °C 2.6 °C 1011.4 hPa West 17.7 km/h 33.8 km/h 62.8% 0 mm 186 W/m2
19:04 9.2 °C 2.6 °C 1011.4 hPa West 12.9 km/h 27.4 km/h 63.2% 0 mm 149 W/m2
19:09 9.1 °C 3.2 °C 1011.4 hPa WSW 24.1 km/h 35.4 km/h 66.6% 0 mm 128 W/m2
19:14 8.7 °C 3.7 °C 1011.4 hPa West 18.3 km/h 35.4 km/h 71% 0 mm 127 W/m2
19:19 8.4 °C 3.8 °C 1011.7 hPa West 18.3 km/h 30.6 km/h 72.8% 0 mm 97 W/m2
19:24 8.2 °C 3.6 °C 1011.7 hPa West 13.5 km/h 22.5 km/h 73% 0 mm 58 W/m2
19:29 8.1 °C 3.6 °C 1011.7 hPa West 17.7 km/h 30.6 km/h 73% 0 mm 47 W/m2
19:34 7.9 °C 3.4 °C 1011.7 hPa West 13.2 km/h 29 km/h 73.2% 0 mm 42 W/m2
19:39 7.8 °C 3.6 °C 1011.7 hPa West 18.7 km/h 30.6 km/h 74% 0 mm 49 W/m2
19:44 7.8 °C 3.7 °C 1011.7 hPa West 17.4 km/h 29 km/h 75% 0 mm 37 W/m2
19:49 7.8 °C 3.7 °C 1011.7 hPa West 11.6 km/h 24.1 km/h 75.6% 0 mm 26 W/m2
19:54 7.7 °C 3.7 °C 1011.7 hPa West 13.8 km/h 25.7 km/h 76.4% 0 mm 14 W/m2
19:59 7.6 °C 3.8 °C 1011.7 hPa West 12.6 km/h 22.5 km/h 77% 0 mm 11 W/m2
20:04 7.6 °C 3.7 °C 1011.7 hPa West 12.2 km/h 20.9 km/h 77% 0 mm 7 W/m2
20:09 7.4 °C 3.8 °C 1011.7 hPa West 5.3 km/h 22.5 km/h 77.8% 0 mm 5 W/m2
20:14 7.4 °C 3.7 °C 1011.7 hPa West 9.7 km/h 20.9 km/h 77.6% 0 mm 0 W/m2
20:19 7.3 °C 3.7 °C 1011.7 hPa West 10.9 km/h 17.7 km/h 78% 0 mm 0 W/m2
20:24 7.3 °C 3.6 °C 1011.7 hPa West 10.3 km/h 20.9 km/h 77.2% 0 mm 0 W/m2
20:29 7.3 °C 3.5 °C 1011.7 hPa West 12.1 km/h 20.9 km/h 77% 0 mm 0 W/m2
20:34 7.2 °C 3.4 °C 1012.1 hPa WNW 12.9 km/h 24.1 km/h 77% 0 mm 0 W/m2
20:39 7.2 °C 3.4 °C 1012.1 hPa WSW 11.6 km/h 19.3 km/h 77% 0 mm 0 W/m2
20:44 7.1 °C 3.5 °C 1012.1 hPa West 10.3 km/h 20.9 km/h 78% 0 mm 0 W/m2
20:49 7.1 °C 3.5 °C 1012.1 hPa West 8.4 km/h 17.7 km/h 78% 0 mm 0 W/m2
20:54 7 °C 3.4 °C 1012.1 hPa West 13.2 km/h 22.5 km/h 78% 0 mm 0 W/m2
20:59 6.9 °C 3.3 °C 1012.1 hPa West 10.3 km/h 22.5 km/h 78% 0 mm 0 W/m2
21:04 6.8 °C 3.4 °C 1012.1 hPa West 7.2 km/h 17.7 km/h 79% 0 mm 0 W/m2
21:09 6.8 °C 3.4 °C 1012.1 hPa West 13.5 km/h 22.5 km/h 79% 0 mm 0 W/m2
21:14 6.9 °C 3.5 °C 1012.1 hPa West 11.3 km/h 22.5 km/h 79% 0 mm 0 W/m2
21:19 6.9 °C 3.3 °C 1012.1 hPa West 11.9 km/h 20.9 km/h 78% 0 mm 0 W/m2
21:24 6.9 °C 3.3 °C 1012.1 hPa West 11.3 km/h 19.3 km/h 78% 0 mm 0 W/m2
21:29 6.9 °C 3.3 °C 1012.1 hPa West 9 km/h 19.3 km/h 78% 0 mm 0 W/m2
21:34 6.9 °C 3.3 °C 1012.1 hPa West 11.3 km/h 17.7 km/h 78% 0 mm 0 W/m2
21:39 6.9 °C 3.2 °C 1012.4 hPa West 9.3 km/h 19.3 km/h 77.2% 0 mm 0 W/m2
21:44 7.1 °C 3.2 °C 1012.4 hPa West 11.6 km/h 22.5 km/h 77% 0 mm 0 W/m2
21:49 7.1 °C 3.3 °C 1012.4 hPa West 12.6 km/h 25.7 km/h 77% 0 mm 0 W/m2
21:54 7.1 °C 3.2 °C 1012.4 hPa West 12.9 km/h 25.7 km/h 77% 0 mm 0 W/m2
21:59 6.9 °C 3.2 °C 1012.4 hPa West 11.9 km/h 22.5 km/h 77% 0 mm 0 W/m2
22:04 6.9 °C 3.1 °C 1012.4 hPa WSW 12.2 km/h 25.7 km/h 77% 0 mm 0 W/m2
22:09 6.9 °C 3.2 °C 1012.4 hPa West 12.6 km/h 19.3 km/h 77.6% 0 mm 0 W/m2
22:14 6.9 °C 3.3 °C 1012.4 hPa West 13.8 km/h 33.8 km/h 78% 0 mm 0 W/m2
22:19 6.9 °C 3.3 °C 1012.4 hPa West 14.3 km/h 33.8 km/h 78% 0 mm 0 W/m2
22:24 6.9 °C 3.3 °C 1012.4 hPa WNW 10.6 km/h 20.9 km/h 78% 0 mm 0 W/m2
22:29 6.9 °C 3.3 °C 1012.4 hPa West 17.1 km/h 29 km/h 78% 0 mm 0 W/m2
22:34 7 °C 3.4 °C 1012.4 hPa WNW 17.7 km/h 29 km/h 78% 0 mm 0 W/m2
22:39 7.1 °C 3.5 °C 1012.1 hPa West 14.5 km/h 24.1 km/h 78% 0 mm 0 W/m2
22:44 7 °C 3.4 °C 1012.1 hPa West 13.8 km/h 20.9 km/h 78% 0 mm 0 W/m2
22:49 7 °C 3.4 °C 1012.1 hPa West 13.5 km/h 22.5 km/h 78% 0 mm 0 W/m2
22:54 7 °C 3.4 °C 1012.1 hPa West 15.1 km/h 30.6 km/h 78% 0 mm 0 W/m2
22:59 7.1 °C 3.5 °C 1012.1 hPa West 16.6 km/h 30.6 km/h 78% 0 mm 0 W/m2
23:04 7.2 °C 3.6 °C 1012.1 hPa WNW 15.4 km/h 30.6 km/h 78% 0 mm 0 W/m2
23:09 7.2 °C 3.6 °C 1012.1 hPa West 14.5 km/h 30.6 km/h 77.8% 0 mm 0 W/m2
23:14 7.2 °C 3.4 °C 1012.1 hPa WNW 13.8 km/h 33.8 km/h 77% 0 mm 0 W/m2
23:19 7.3 °C 3.5 °C 1012.1 hPa WNW 16.1 km/h 33.8 km/h 77% 0 mm 0 W/m2
23:24 7.3 °C 3.5 °C 1012.1 hPa West 18.7 km/h 33.8 km/h 76.6% 0 mm 0 W/m2
23:29 7.4 °C 3.4 °C 1012.1 hPa West 12.2 km/h 25.7 km/h 76% 0 mm 0 W/m2
23:34 7.4 °C 3.4 °C 1012.1 hPa West 13.5 km/h 25.7 km/h 76% 0 mm 0 W/m2
23:39 7.4 °C 3.4 °C 1012.4 hPa WNW 11.3 km/h 33.8 km/h 76% 0 mm 0 W/m2
23:44 7.5 °C 3.5 °C 1012.4 hPa West 14.5 km/h 25.7 km/h 76% 0 mm 0 W/m2
23:49 7.6 °C 3.6 °C 1012.4 hPa West 12.2 km/h 25.7 km/h 76% 0 mm 0 W/m2
23:54 7.6 °C 3.6 °C 1012.4 hPa West 13.8 km/h 27.4 km/h 76% 0 mm 0 W/m2
23:59 7.6 °C 3.6 °C 1012.4 hPa West 14.5 km/h 30.6 km/h 76% 0 mm 0 W/m2
Bath Spa Weather
Compliments of Weather Underground - 2 mb